Time;durP1;ratioP1;P1;durP2;ratioP2;P2;SDS_P1;SDS_P2;PMS_P1;PMS_P2;Temp;Humidity;BMP_temperature;BMP_pressure;BME280_temperature;BME280_humidity;BME280_pressure;Samples;Min_cycle;Max_cycle;Signal;HPM_P1;HPM_P2
2021/12/12 00:01:43;;;;;;;44.90;14.98;;;0.50;99.90;;;-1.37;100.00;101214.53;5004070;28;20083;-77
2021/12/12 00:04:15;;;;;;;50.05;15.00;;;0.50;99.90;;;-1.35;100.00;101217.16;5019745;28;20025;-77
2021/12/12 00:06:54;;;;;;;39.88;14.32;;;0.60;99.90;;;-1.31;100.00;101219.78;5023724;28;20032;-76
2021/12/12 00:09:29;;;;;;;42.50;14.32;;;0.60;99.90;;;-1.25;100.00;101242.25;4996837;28;20031;-77
2021/12/12 00:11:57;;;;;;;39.78;14.63;;;0.70;99.90;;;-1.16;100.00;101242.31;5007205;28;20040;-77
2021/12/12 00:14:29;;;;;;;44.35;14.85;;;0.70;99.90;;;-1.13;100.00;101244.06;5012772;28;20036;-76
2021/12/12 00:16:58;;;;;;;38.25;13.80;;;0.70;99.90;;;-1.13;100.00;101242.34;4998892;28;20087;-77
2021/12/12 00:19:28;;;;;;;41.05;14.07;;;0.80;99.90;;;-1.02;100.00;101241.56;4970293;28;20404;-77
2021/12/12 00:22:01;;;;;;;44.35;14.48;;;0.90;99.90;;;-0.92;100.00;101235.66;4978825;28;21028;-77
2021/12/12 00:24:30;;;;;;;51.00;15.45;;;;;;;-0.82;100.00;101250.41;4976285;28;20021;-77
2021/12/12 00:26:57;;;;;;;40.33;14.63;;;1.00;99.90;;;-0.78;100.00;101246.94;5011486;28;20036;-76
2021/12/12 00:29:26;;;;;;;39.67;14.32;;;1.10;99.90;;;-0.73;100.00;101252.19;4980598;28;20060;-77
2021/12/12 00:32:00;;;;;;;47.10;14.73;;;1.20;99.90;;;-0.68;100.00;101255.66;4988771;28;21067;-76
2021/12/12 00:34:32;;;;;;;46.47;15.45;;;1.20;99.90;;;-0.67;100.00;101257.38;4985637;28;21100;-77
2021/12/12 00:36:58;;;;;;;51.17;16.27;;;1.20;99.90;;;-0.70;100.00;101255.66;5019622;28;20037;-77
2021/12/12 00:39:33;;;;;;;51.08;14.57;;;1.10;99.90;;;-0.70;100.00;101247.88;4997110;28;20048;-77
2021/12/12 00:42:12;;;;;;;43.58;16.08;;;1.20;99.90;;;-0.68;100.00;101250.50;4996131;28;20110;-77
2021/12/12 00:44:47;;;;;;;53.05;16.17;;;1.20;99.90;;;-0.69;100.00;101247.06;5005499;28;20037;-76
2021/12/12 00:47:14;;;;;;;45.50;16.10;;;;;;;-0.73;100.00;101245.28;4993547;28;20048;-77
2021/12/12 00:49:41;;;;;;;49.22;17.10;;;1.10;99.90;;;-0.75;100.00;101244.41;5035742;28;20099;-77
2021/12/12 00:52:14;;;;;;;51.38;16.75;;;1.10;99.90;;;-0.73;100.00;101245.28;4983415;28;20063;-77
2021/12/12 00:54:43;;;;;;;46.35;16.83;;;1.10;99.90;;;-0.68;100.00;101247.91;5005631;28;20029;-77
2021/12/12 00:57:16;;;;;;;45.97;17.10;;;1.20;99.90;;;-0.65;100.00;101248.81;4983701;28;20039;-77
2021/12/12 00:59:44;;;;;;;50.83;16.77;;;1.20;99.90;;;-0.57;100.00;101245.41;4987568;28;20521;-77
2021/12/12 01:02:26;;;;;;;59.45;16.67;;;1.30;99.90;;;-0.55;100.00;101252.31;4960983;28;20115;-77
2021/12/12 01:04:57;;;;;;;60.00;17.42;;;1.30;99.90;;;-0.51;100.00;101260.97;5010111;28;20032;-77
2021/12/12 01:07:31;;;;;;;44.45;16.73;;;1.30;99.90;;;-0.50;100.00;101262.69;4989794;28;20052;-77
2021/12/12 01:10:31;;;;;;;52.17;17.48;;;1.40;99.90;;;-0.45;100.00;101266.19;4965736;28;20438;-76
2021/12/12 01:13:04;;;;;;;53.72;17.45;;;1.40;99.90;;;-0.48;100.00;101268.75;4998662;28;20066;-77
2021/12/12 01:15:45;;;;;;;56.75;16.85;;;1.40;99.90;;;-0.47;100.00;101258.41;4973169;28;20043;-77
2021/12/12 01:18:21;;;;;;;58.60;17.70;;;1.40;99.90;;;-0.44;100.00;101258.44;4981985;28;20037;-77
2021/12/12 01:21:00;;;;;;;52.55;17.33;;;1.40;99.90;;;-0.39;100.00;101250.69;5000161;28;20025;-77
2021/12/12 01:23:41;;;;;;;50.10;17.23;;;1.50;99.90;;;-0.38;100.00;101246.41;4994410;28;20029;-77
2021/12/12 01:26:09;;;;;;;50.05;16.50;;;1.40;99.90;;;-0.46;100.00;101246.34;5012163;28;20021;-76
2021/12/12 01:28:42;;;;;;;53.72;18.08;;;1.40;99.90;;;-0.49;100.00;101248.91;4966930;28;20479;-78
2021/12/12 01:31:16;;;;;;;51.08;16.30;;;1.30;99.90;;;-0.49;100.00;101251.50;4952530;28;20033;-78
2021/12/12 01:33:43;;;;;;;52.25;17.10;;;1.30;99.90;;;-0.54;100.00;101242.81;5010505;28;20091;-78
2021/12/12 01:36:24;;;;;;;50.08;17.83;;;1.30;99.90;;;-0.56;100.00;101239.34;5028759;28;20033;-77
2021/12/12 01:38:55;;;;;;;55.13;17.30;;;1.30;99.90;;;-0.57;100.00;101248.84;5007921;28;20025;-77
2021/12/12 01:41:49;;;;;;;53.67;16.73;;;1.30;99.90;;;-0.57;100.00;101260.94;4988265;28;20063;-77
2021/12/12 01:44:31;;;;;;;49.45;17.00;;;1.30;99.90;;;-0.55;100.00;101264.41;4997087;28;20175;-77
2021/12/12 01:47:05;;;;;;;48.83;17.23;;;1.30;99.90;;;-0.49;100.00;101270.47;4977941;28;20025;-77
2021/12/12 01:49:35;;;;;;;58.72;16.75;;;1.40;99.90;;;-0.43;100.00;101265.34;5016799;28;20043;-77
2021/12/12 01:52:06;;;;;;;44.85;16.50;;;1.40;99.90;;;-0.45;100.00;101271.38;4974138;28;20677;-77
2021/12/12 01:54:44;;;;;;;64.30;17.95;;;;;;;-0.49;100.00;101277.38;4970186;28;20115;-77
2021/12/12 01:57:26;;;;;;;52.60;17.77;;;1.30;99.90;;;-0.52;100.00;101239.41;5024213;28;20033;-77
2021/12/12 01:59:56;;;;;;;57.40;16.77;;;1.30;99.90;;;-0.53;100.00;101252.34;4975597;28;20044;-78
2021/12/12 02:02:40;;;;;;;58.20;17.00;;;1.30;99.90;;;-0.48;100.00;101268.75;4961394;28;20024;-77
2021/12/12 02:05:14;;;;;;;45.58;15.88;;;1.30;99.90;;;-0.49;100.00;101267.03;5000665;28;20051;-77
2021/12/12 02:07:44;;;;;;;64.40;18.70;;;1.40;99.90;;;-0.49;100.00;101262.72;4981778;28;20044;-77
2021/12/12 02:10:21;;;;;;;47.10;16.67;;;1.40;99.90;;;-0.48;100.00;101273.91;4988602;28;20055;-76
2021/12/12 02:12:48;;;;;;;60.38;18.00;;;1.40;99.90;;;-0.43;100.00;101270.53;4933766;28;20435;-77
2021/12/12 02:15:16;;;;;;;61.85;17.83;;;1.40;99.90;;;-0.41;100.00;101265.38;4989230;28;20158;-77
2021/12/12 02:17:48;;;;;;;50.28;16.92;;;1.40;99.90;;;-0.42;100.00;101266.22;4986048;28;20119;-77
2021/12/12 02:20:40;;;;;;;53.78;18.65;;;1.40;99.90;;;-0.38;100.00;101260.19;4990084;28;20037;-77
2021/12/12 02:37:10;;;;;;;55.53;17.02;;;1.20;99.90;;;-0.59;100.00;101288.50;5003808;28;20044;-77
2021/12/12 02:39:40;;;;;;;56.72;16.98;;;1.20;99.90;;;-0.60;100.00;101298.00;5022622;28;20086;-77
2021/12/12 02:42:12;;;;;;;52.15;16.85;;;1.20;99.90;;;-0.58;100.00;101303.16;5042941;28;22645;-76
2021/12/12 02:44:42;;;;;;;52.65;16.90;;;1.30;99.90;;;-0.62;100.00;101290.19;5009720;28;20037;-77
2021/12/12 02:47:18;;;;;;;52.05;16.83;;;1.20;99.90;;;-0.63;100.00;101296.25;4970693;28;20032;-77
2021/12/12 02:52:29;;;;;;;52.72;17.40;;;1.20;99.90;;;-0.63;100.00;101298.84;5007986;28;20496;-77
2021/12/12 02:55:06;;;;;;;54.05;17.08;;;1.20;99.90;;;-0.58;100.00;101297.97;5007209;28;20029;-77
2021/12/12 02:57:34;;;;;;;52.15;15.57;;;1.20;99.90;;;-0.62;100.00;101308.31;5004688;28;20031;-77
2021/12/12 03:00:00;;;;;;;53.10;18.45;;;1.20;99.90;;;-0.61;100.00;101304.00;4990024;28;20021;-77
2021/12/12 03:02:41;;;;;;;52.97;17.42;;;1.20;99.90;;;-0.62;100.00;101305.72;4981702;28;20078;-77
2021/12/12 03:05:08;;;;;;;57.53;16.95;;;1.20;99.90;;;-0.60;100.00;101320.38;4976466;28;20036;-77
2021/12/12 03:07:35;;;;;;;64.97;18.27;;;1.20;99.90;;;-0.60;100.00;101322.97;4967961;28;20431;-78
2021/12/12 03:10:09;;;;;;;49.65;16.75;;;1.30;99.90;;;-0.62;100.00;101331.59;4966836;28;20486;-78
2021/12/12 03:12:37;;;;;;;53.55;16.63;;;1.20;99.90;;;-0.62;100.00;101325.56;4989964;28;20586;-77
2021/12/12 03:15:16;;;;;;;54.30;16.90;;;1.30;99.90;;;-0.60;100.00;101328.13;4977934;28;20029;-77
2021/12/12 03:17:45;;;;;;;55.10;17.20;;;1.20;99.90;;;-0.63;100.00;101342.81;5019280;28;20029;-77
2021/12/12 03:20:25;;;;;;;62.20;17.55;;;1.20;99.90;;;-0.60;100.00;101346.25;5006023;28;20036;-77
2021/12/12 03:23:28;;;;;;;49.88;17.60;;;1.20;99.90;;;-0.57;100.00;101348.88;5018579;28;20021;-77
2021/12/12 03:26:05;;;;;;;59.88;17.08;;;1.20;99.90;;;-0.57;100.00;101348.88;4956084;28;20112;-77
2021/12/12 03:28:37;;;;;;;48.25;16.88;;;1.70;99.90;;;-0.59;100.00;101346.25;5005595;28;20104;-77
2021/12/12 03:31:20;;;;;;;55.20;17.88;;;1.20;99.90;;;-0.61;100.00;101347.97;5005376;28;20142;-77
2021/12/12 03:33:50;;;;;;;64.88;18.15;;;1.20;99.90;;;-0.59;100.00;101335.06;4974274;28;20048;-77
2021/12/12 03:36:17;;;;;;;51.92;17.20;;;1.20;99.90;;;-0.63;100.00;101335.03;4982362;28;20029;-77
2021/12/12 03:38:56;;;;;;;57.47;17.67;;;1.20;99.90;;;-0.64;100.00;101325.53;4978140;28;20041;-77
2021/12/12 03:41:33;;;;;;;64.55;17.08;;;1.20;99.90;;;-0.65;100.00;101339.34;4952137;28;20037;-77
2021/12/12 03:44:06;;;;;;;60.88;17.10;;;1.20;99.90;;;-0.65;100.00;101331.56;4980678;28;20029;-77
2021/12/12 03:46:35;;;;;;;53.92;18.10;;;1.20;99.90;;;-0.65;100.00;101334.16;4974603;28;20072;-77
2021/12/12 03:49:03;;;;;;;56.47;18.02;;;1.20;99.90;;;-0.64;100.00;101337.59;4971867;28;20023;-77
2021/12/12 03:51:30;;;;;;;57.65;17.42;;;1.20;99.90;;;-0.65;100.00;101322.94;4968404;28;20033;-77
2021/12/12 03:53:57;;;;;;;52.17;17.13;;;1.20;99.90;;;-0.66;100.00;101332.41;5014042;28;20055;-77
2021/12/12 03:56:23;;;;;;;61.30;17.58;;;1.20;99.90;;;-0.65;100.00;101331.56;5001738;28;20029;-77
2021/12/12 03:58:53;;;;;;;64.80;18.52;;;1.20;99.90;;;-0.65;100.00;101333.28;5019679;28;20094;-77
2021/12/12 04:01:27;;;;;;;58.13;18.23;;;1.20;99.90;;;-0.67;100.00;101343.63;5022233;28;20386;-77
2021/12/12 04:04:00;;;;;;;52.63;17.42;;;1.20;99.90;;;-0.66;100.00;101337.59;4989631;28;20048;-77
2021/12/12 04:06:30;;;;;;;69.00;19.85;;;2.80;99.90;;;-0.67;100.00;101345.31;4963848;28;20044;-77
2021/12/12 04:09:03;;;;;;;63.40;18.73;;;1.20;99.90;;;-0.65;100.00;101357.44;4955874;28;20486;-77
2021/12/12 04:11:48;;;;;;;45.47;15.50;;;1.10;99.90;;;-0.65;100.00;101349.69;4974989;28;20053;-77
2021/12/12 04:14:18;;;;;;;55.85;18.17;;;1.20;99.90;;;-0.62;100.00;101356.59;4969593;28;20033;-77
2021/12/12 04:16:52;;;;;;;66.03;18.27;;;1.20;99.90;;;-0.65;100.00;101356.56;4962663;28;20047;-77
2021/12/12 04:19:19;;;;;;;61.33;18.13;;;1.20;99.90;;;-0.70;100.00;101350.47;4986140;28;20037;-77
2021/12/12 04:21:51;;;;;;;68.68;19.35;;;1.10;99.90;;;-0.66;100.00;101357.41;5020901;28;20025;-77
2021/12/12 04:24:31;;;;;;;50.45;16.48;;;1.20;99.90;;;-0.69;100.00;101359.97;4942538;28;20021;-77
2021/12/12 04:26:59;;;;;;;53.55;16.83;;;1.10;99.90;;;-0.74;100.00;101354.75;4953969;28;20159;-77
2021/12/12 04:29:49;;;;;;;65.82;17.13;;;1.10;99.90;;;-0.78;100.00;101358.16;5008301;28;20021;-77
2021/12/12 04:32:27;;;;;;;70.93;18.20;;;1.10;99.90;;;-0.80;100.00;101362.44;5005060;28;20135;-77
2021/12/12 04:35:03;;;;;;;64.65;17.17;;;1.10;99.90;;;-0.82;100.00;101364.16;4985085;28;20516;-77
2021/12/12 04:37:34;;;;;;;66.50;17.80;;;1.00;99.90;;;-0.77;100.00;101365.06;5007832;28;21036;-77
2021/12/12 04:40:01;;;;;;;55.85;17.42;;;1.00;99.90;;;-0.82;100.00;101374.50;5005284;28;20405;-77
2021/12/12 04:42:41;;;;;;;53.70;16.90;;;1.10;99.90;;;-0.81;100.00;101368.47;4971051;28;20106;-77
2021/12/12 04:45:20;;;;;;;57.10;17.00;;;1.10;99.90;;;-0.79;100.00;101377.13;4953789;28;22325;-77
2021/12/12 04:51:25;;;;;;;67.45;17.27;;;1.00;99.90;;;-0.84;100.00;101382.25;5001376;28;20157;-77
2021/12/12 04:54:12;;;;;;;62.60;17.58;;;1.00;99.90;;;-0.85;100.00;101401.19;4990743;28;20032;-77
2021/12/12 04:56:54;;;;;;;56.85;17.70;;;1.00;99.90;;;-0.87;100.00;101386.50;4986603;28;20028;-77
2021/12/12 04:59:32;;;;;;;64.88;18.15;;;1.00;99.90;;;-0.93;100.00;101384.75;4974948;28;20047;-77
2021/12/12 05:02:08;;;;;;;59.85;17.55;;;0.90;99.90;;;-0.93;100.00;101391.59;4993402;28;20045;-77
2021/12/12 05:04:46;;;;;;;90.05;18.90;;;0.90;99.90;;;-0.94;100.00;101407.97;4986648;28;20513;-77
2021/12/12 05:07:38;;;;;;;60.55;17.85;;;0.90;99.90;;;-0.97;100.00;101397.59;5016651;28;20028;-77
2021/12/12 05:10:25;;;;;;;86.45;20.02;;;0.90;99.90;;;-0.96;100.00;101401.91;5010908;28;20512;-78
2021/12/12 05:13:07;;;;;;;54.25;17.52;;;0.90;99.90;;;-0.97;100.00;101397.59;5023089;28;20562;-77
2021/12/12 05:15:45;;;;;;;67.05;17.38;;;0.90;99.90;;;-0.97;100.00;101395.00;4971202;28;20017;-77
2021/12/12 05:18:26;;;;;;;68.18;19.27;;;0.90;99.90;;;-0.99;100.00;101396.69;4960261;28;20013;-77
2021/12/12 05:21:00;;;;;;;75.03;19.60;;;0.90;99.90;;;-0.96;100.00;101412.25;4992614;28;20025;-77
2021/12/12 05:23:30;;;;;;;66.72;19.42;;;0.90;99.90;;;-0.87;100.00;101410.63;4989629;28;20027;-78
2021/12/12 05:26:10;;;;;;;65.22;19.42;;;1.00;99.90;;;-0.84;100.00;101408.09;4989901;28;20736;-77
2021/12/12 05:28:48;;;;;;;85.63;19.27;;;1.00;99.90;;;-0.77;100.00;101410.75;5003254;28;20029;-77
2021/12/12 05:31:17;;;;;;;62.10;17.92;;;1.10;99.90;;;-0.73;100.00;101412.53;4977984;28;20037;-78
2021/12/12 05:33:49;;;;;;;87.95;22.77;;;1.10;99.90;;;-0.70;100.00;101409.97;4991996;28;20037;-77
2021/12/12 05:36:17;;;;;;;76.43;19.88;;;1.10;99.90;;;-0.69;100.00;101407.41;5007876;28;21152;-77
2021/12/12 05:38:44;;;;;;;76.88;20.70;;;1.20;99.90;;;-0.70;100.00;101407.38;4981494;28;20033;-78
2021/12/12 05:41:10;;;;;;;71.15;19.90;;;1.10;99.90;;;-0.70;100.00;101394.44;4987583;28;20040;-78
2021/12/12 05:43:40;;;;;;;82.35;21.33;;;1.20;99.90;;;-0.69;100.00;101383.22;4998023;28;20029;-77
2021/12/12 05:46:06;;;;;;;81.68;21.75;;;1.10;99.90;;;-0.70;100.00;101372.03;4956651;28;20040;-77
2021/12/12 05:48:33;;;;;;;79.30;21.40;;;;;;;-0.68;100.00;101382.41;4975784;28;20069;-77
2021/12/12 05:51:01;;;;;;;72.57;20.60;;;1.20;99.90;;;-0.67;100.00;101382.41;4973390;28;20451;-78
2021/12/12 05:53:27;;;;;;;79.75;20.92;;;1.20;99.90;;;-0.69;100.00;101381.53;4967026;28;20110;-78
2021/12/12 05:55:57;;;;;;;460.58;82.18;;;1.10;99.90;;;-0.71;100.00;101390.13;4968975;28;20060;-78
2021/12/12 05:58:23;;;;;;;76.43;20.33;;;1.10;99.90;;;-0.72;100.00;101397.00;4932053;28;20037;-77
2021/12/12 06:01:02;;;;;;;96.78;20.77;;;1.10;99.90;;;-0.71;100.00;101400.47;4993775;28;20512;-78
2021/12/12 06:03:37;;;;;;;86.53;21.17;;;1.10;99.90;;;-0.73;100.00;101395.28;5031895;28;20114;-77
2021/12/12 06:06:17;;;;;;;87.00;19.63;;;1.20;99.90;;;-0.71;100.00;101391.00;4984332;28;20017;-77
2021/12/12 06:08:47;;;;;;;79.03;20.73;;;1.10;99.90;;;-0.72;100.00;101407.34;4981358;28;20511;-77
2021/12/12 06:11:20;;;;;;;84.38;19.58;;;1.10;99.90;;;-0.70;100.00;101405.66;4980641;28;20041;-77
2021/12/12 06:13:50;;;;;;;93.85;20.92;;;1.20;99.90;;;-0.69;100.00;101399.63;4998310;28;20404;-78
2021/12/12 06:16:19;;;;;;;510.08;89.07;;;1.20;99.90;;;-0.69;100.00;101410.00;4958777;28;20022;-77
2021/12/12 06:18:53;;;;;;;106.05;32.35;;;1.20;99.90;;;-0.70;100.00;101409.97;4985745;28;20045;-77
2021/12/12 06:21:21;;;;;;;166.10;98.18;;;1.10;99.90;;;-0.70;100.00;101417.72;4985528;28;20101;-77
2021/12/12 06:23:47;;;;;;;93.85;27.40;;;1.20;99.90;;;-0.69;100.00;101414.28;4975101;28;20059;-78
2021/12/12 06:26:15;;;;;;;734.47;374.58;;;1.10;99.90;;;-0.70;100.00;101426.34;5034770;28;20043;-77
2021/12/12 06:28:46;;;;;;;128.52;21.45;;;1.20;99.90;;;-0.71;100.00;101431.53;4960807;28;20479;-78
2021/12/12 06:31:13;;;;;;;75.25;18.60;;;1.10;99.90;;;-0.71;100.00;101439.28;5009848;28;20076;-78
2021/12/12 06:33:39;;;;;;;90.30;30.73;;;1.10;99.90;;;-0.72;100.00;101443.56;4984597;28;20048;-77
2021/12/12 06:36:12;;;;;;;87.13;19.38;;;1.10;99.90;;;-0.68;100.00;101450.50;4990053;28;20504;-77
2021/12/12 06:38:42;;;;;;;101.50;23.30;;;1.20;99.90;;;-0.67;100.00;101457.44;4978319;28;20047;-77
2021/12/12 06:41:11;;;;;;;56.45;13.30;;;1.00;99.90;;;-0.68;100.00;101449.66;4991536;28;20047;-77
2021/12/12 06:43:40;;;;;;;117.93;21.45;;;1.10;99.90;;;-0.69;100.00;101453.94;4956438;22;20049;-78
2021/12/12 06:46:06;;;;;;;23.45;10.05;;;1.20;99.90;;;-0.67;100.00;101461.72;4946324;28;20037;-78
2021/12/12 06:48:33;;;;;;;1215.32;588.00;;;1.10;99.90;;;-0.73;100.00;101459.94;4928956;28;20513;-78
2021/12/12 06:51:01;;;;;;;112.97;20.90;;;1.10;99.90;;;-0.72;100.00;101453.91;4937419;28;20055;-77
2021/12/12 06:53:34;;;;;;;100.75;22.05;;;1.10;99.90;;;-0.72;100.00;101458.22;4914372;28;20042;-78
2021/12/12 06:56:02;;;;;;;121.40;21.02;;;1.10;99.90;;;-0.73;100.00;101462.53;4898932;28;20043;-78
2021/12/12 06:58:31;;;;;;;108.57;21.90;;;1.10;99.90;;;-0.72;100.00;101472.00;4883177;28;20042;-77
2021/12/12 07:01:20;;;;;;;114.60;20.63;;;1.10;99.90;;;-0.72;100.00;101479.75;4936476;28;20043;-77
2021/12/12 07:03:49;;;;;;;110.38;21.15;;;2.40;99.90;;;-0.72;100.00;101479.75;4946514;28;20022;-78
2021/12/12 07:06:23;;;;;;;109.28;20.45;;;1.10;99.90;;;-0.73;100.00;101478.03;4947585;28;20049;-77
2021/12/12 07:08:51;;;;;;;113.75;20.95;;;1.10;99.90;;;-0.71;100.00;101478.94;4942432;28;20045;-79
2021/12/12 07:11:20;;;;;;;108.93;21.98;;;1.10;99.90;;;-0.76;100.00;101475.41;4907675;28;20041;-78
2021/12/12 07:13:51;;;;;;;99.97;22.13;;;1.10;99.90;;;-0.71;100.00;101478.06;4892914;28;20085;-78
2021/12/12 07:16:20;;;;;;;111.10;21.95;;;1.10;99.90;;;-0.74;100.00;101470.25;4910627;28;20031;-78
2021/12/12 07:18:50;;;;;;;109.68;20.25;;;1.10;99.90;;;-0.72;100.00;101484.94;4904955;28;20051;-78
2021/12/12 07:21:21;;;;;;;100.78;20.00;;;1.10;99.90;;;-0.76;100.00;101483.16;4906194;28;22714;-77
2021/12/12 07:23:49;;;;;;;110.60;20.30;;;1.10;99.90;;;-0.78;100.00;101474.50;4904998;28;20038;-78
2021/12/12 07:26:25;;;;;;;107.20;21.25;;;1.10;99.90;;;-0.77;100.00;101486.63;4888566;28;20034;-77
2021/12/12 07:28:54;;;;;;;107.88;20.33;;;1.10;99.90;;;-0.76;100.00;101490.91;4898033;28;20038;-78
2021/12/12 07:31:26;;;;;;;118.25;21.55;;;1.10;99.90;;;-0.75;100.00;101494.41;4912999;28;20041;-78
2021/12/12 07:33:58;;;;;;;90.05;19.55;;;1.10;99.90;;;-0.76;100.00;101509.03;4915221;28;20042;-78
2021/12/12 07:36:31;;;;;;;120.43;23.25;;;1.10;99.90;;;-0.73;100.00;101496.16;4907214;28;20042;-78
2021/12/12 07:39:09;;;;;;;97.50;18.60;;;1.10;99.90;;;-0.72;100.00;101490.09;4935834;28;20026;-78
2021/12/12 07:41:38;;;;;;;98.07;21.15;;;1.10;99.90;;;-0.73;100.00;101506.50;4889044;28;20027;-78
2021/12/12 07:44:10;;;;;;;111.03;20.92;;;1.10;99.90;;;-0.70;100.00;101509.09;4944335;28;20034;-77
2021/12/12 07:46:38;;;;;;;102.63;21.77;;;1.10;99.90;;;-0.72;100.00;101510.81;4938264;28;20470;-78
2021/12/12 07:49:06;;;;;;;101.03;21.02;;;1.10;99.90;;;-0.74;100.00;101501.28;4902827;28;20045;-78
2021/12/12 07:51:43;;;;;;;105.95;20.73;;;1.10;99.90;;;-0.70;100.00;101509.09;4884982;28;20115;-78
2021/12/12 07:54:10;;;;;;;96.57;20.25;;;1.10;99.90;;;-0.70;100.00;101503.94;4921191;28;20045;-78
2021/12/12 07:56:49;;;;;;;122.95;24.15;;;1.10;99.90;;;-0.71;100.00;101499.63;4893093;28;20740;-77
2021/12/12 07:59:18;;;;;;;103.93;21.05;;;1.20;99.90;;;-0.70;100.00;101498.75;4932204;28;20165;-78
2021/12/12 08:01:49;;;;;;;117.20;21.90;;;1.10;99.90;;;-0.72;100.00;101500.44;4899184;28;20045;-79
2021/12/12 08:04:21;;;;;;;108.63;22.13;;;1.10;99.90;;;-0.66;100.00;101505.72;4878299;28;20031;-78
2021/12/12 08:06:58;;;;;;;102.88;21.58;;;1.20;99.90;;;-0.66;100.00;101491.91;4891276;28;20037;-77
2021/12/12 08:09:26;;;;;;;108.95;21.92;;;1.20;99.90;;;-0.65;100.00;101497.13;4912560;28;20035;-78
2021/12/12 08:11:53;;;;;;;92.88;21.83;;;1.20;99.90;;;-0.59;100.00;101501.47;4920005;28;20030;-78
2021/12/12 08:14:25;;;;;;;104.53;21.15;;;1.20;99.90;;;-0.60;100.00;101497.16;4966769;28;20042;-77
2021/12/12 08:16:53;;;;;;;114.88;22.30;;;1.20;99.90;;;-0.64;100.00;101504.00;4949832;28;20603;-78
2021/12/12 08:19:25;;;;;;;20.77;4.88;;;1.20;99.90;;;-0.63;100.00;101504.88;4890879;28;20034;-78
2021/12/12 08:22:04;;;;;;;105.88;26.80;;;1.20;99.90;;;-0.59;100.00;101505.78;4911449;28;20459;-77
2021/12/12 08:24:34;;;;;;;230.05;30.88;;;1.20;99.90;;;-0.60;100.00;101506.63;4877334;28;20034;-78
2021/12/12 08:27:03;;;;;;;108.50;23.45;;;1.20;99.90;;;-0.59;100.00;101492.84;4913291;28;20089;-78
2021/12/12 08:29:33;;;;;;;104.78;20.55;;;1.20;99.90;;;-0.59;100.00;101490.25;4923877;28;20023;-78
2021/12/12 08:32:02;;;;;;;95.20;21.05;;;1.20;99.90;;;-0.56;100.00;101495.47;4905922;28;20661;-77
2021/12/12 08:34:29;;;;;;;110.32;22.25;;;1.20;99.90;;;-0.54;100.00;101489.47;4944543;28;20042;-78
2021/12/12 08:37:03;;;;;;;108.75;21.65;;;1.30;99.90;;;-0.51;100.00;101486.06;4943063;28;20074;-78
2021/12/12 08:39:30;;;;;;;111.38;21.85;;;1.30;99.90;;;-0.50;100.00;101490.34;4928526;28;20037;-79
2021/12/12 08:41:59;;;;;;;110.45;21.75;;;1.30;99.90;;;-0.51;100.00;101488.63;4928904;28;20066;-78
2021/12/12 08:44:29;;;;;;;91.10;21.42;;;1.30;99.90;;;-0.45;100.00;101489.56;4918756;28;20030;-79
2021/12/12 08:46:58;;;;;;;96.40;22.63;;;1.30;99.90;;;-0.43;100.00;101481.84;4922899;28;20088;-78
2021/12/12 08:49:32;;;;;;;113.43;22.70;;;1.40;99.90;;;-0.44;100.00;101487.84;4899020;28;20043;-78
2021/12/12 08:52:29;;;;;;;96.35;22.00;;;1.30;99.90;;;-0.47;100.00;101473.16;4896605;28;20525;-78
2021/12/12 08:54:56;;;;;;;96.28;21.00;;;1.30;99.90;;;-0.44;100.00;101470.59;4946251;28;20708;-77
2021/12/12 08:57:41;;;;;;;99.68;20.88;;;1.30;99.90;;;-0.43;100.00;101466.31;4954877;28;20030;-78
2021/12/12 09:00:18;;;;;;;98.47;21.48;;;1.40;99.90;;;-0.40;100.00;101471.50;4909597;28;20050;-78
2021/12/12 09:02:45;;;;;;;98.55;21.13;;;1.40;99.90;;;-0.43;100.00;101467.16;4953283;28;20448;-78
2021/12/12 09:05:22;;;;;;;102.50;21.48;;;1.40;99.90;;;-0.39;100.00;101470.63;4941371;28;20037;-78
2021/12/12 09:07:52;;;;;;;99.40;21.90;;;1.40;99.90;;;-0.35;100.00;101468.97;4911667;28;20109;-79
2021/12/12 09:10:43;;;;;;;18.70;4.82;;;1.40;99.90;;;-0.35;100.00;101471.53;4918615;28;20038;-78
2021/12/12 09:13:25;;;;;;;838.63;378.15;;;1.40;99.90;;;-0.34;100.00;101461.22;4944415;28;20161;-78
2021/12/12 09:16:32;;;;;;;34.60;8.93;;;1.50;99.90;;;-0.33;100.00;101462.94;4935642;28;20415;-78
2021/12/12 09:19:14;;;;;;;93.07;20.67;;;3.00;99.90;;;-0.37;100.00;101468.94;4897590;28;20031;-78
2021/12/12 09:22:17;;;;;;;90.95;20.65;;;1.40;99.90;;;-0.35;100.00;101459.47;4926649;28;20038;-78
2021/12/12 09:25:00;;;;;;;84.97;21.10;;;1.50;99.90;;;-0.31;100.00;101450.88;4932407;28;20018;-78
2021/12/12 09:27:54;;;;;;;95.95;21.77;;;1.50;99.90;;;-0.33;100.00;101457.75;4952254;28;20110;-77
2021/12/12 09:30:26;;;;;;;100.60;21.08;;;1.50;99.90;;;-0.28;100.00;101450.03;4926078;28;20023;-79
2021/12/12 09:33:19;;;;;;;86.35;21.73;;;1.50;99.90;;;-0.29;100.00;101448.31;4890712;28;20035;-78
2021/12/12 09:36:23;;;;;;;97.95;21.02;;;1.50;99.90;;;-0.26;100.00;101448.34;4948905;28;20030;-78
2021/12/12 09:39:11;;;;;;;111.95;21.02;;;1.50;99.90;;;-0.29;100.00;101441.41;4917841;28;20613;-78
2021/12/12 09:42:18;;;;;;;82.05;18.80;;;1.50;99.90;;;-0.27;100.00;101452.66;4906016;28;20031;-77
2021/12/12 09:45:14;;;;;;;;;;;1.50;99.90;;;-0.22;100.00;101452.69;4921725;28;20018;-78
2021/12/12 09:51:21;;;;;;;97.43;18.55;;;1.50;99.90;;;-0.19;100.00;101447.56;4952353;28;20045;-78
2021/12/12 09:54:06;;;;;;;;;;;;;;;-0.14;100.00;101445.00;4904874;28;20614;-78
2021/12/12 09:56:43;;;;;;;97.10;17.98;;;1.60;99.90;;;-0.13;100.00;101447.63;4945799;28;19917;-78
2021/12/12 09:59:41;;;;;;;103.45;19.95;;;1.70;99.90;;;-0.07;100.00;101444.19;4922375;28;20031;-78
2021/12/12 10:02:27;;;;;;;100.47;19.48;;;1.70;99.90;;;0.01;100.00;101441.69;4932206;28;20026;-78
2021/12/12 10:05:33;;;;;;;104.47;22.90;;;1.70;99.90;;;0.14;100.00;101443.50;4956538;28;20114;-78
2021/12/12 10:08:30;;;;;;;115.53;20.67;;;2.00;99.90;;;0.27;100.00;101445.34;4912859;28;20048;-79
2021/12/12 10:11:28;;;;;;;99.18;20.67;;;2.00;99.90;;;0.34;100.00;101430.69;4929952;28;20043;-78
2021/12/12 10:14:06;;;;;;;110.85;21.67;;;2.10;99.90;;;0.37;100.00;101417.78;4927068;28;20041;-78
2021/12/12 10:16:42;;;;;;;102.57;19.77;;;2.10;99.90;;;0.39;100.00;101423.84;4918525;28;20070;-78
2021/12/12 10:19:41;;;;;;;96.00;20.55;;;2.20;99.90;;;0.51;100.00;101421.31;4929725;28;20038;-78
2021/12/12 10:22:54;;;;;;;95.05;20.95;;;2.20;99.90;;;0.43;100.00;101399.66;4937235;28;20045;-79
2021/12/12 10:25:48;;;;;;;80.03;20.42;;;2.20;99.90;;;0.50;100.00;101405.78;4909065;28;20046;-78
2021/12/12 10:28:33;;;;;;;100.28;19.17;;;2.20;99.90;;;0.41;100.00;101391.00;4937203;28;20414;-78
2021/12/12 10:31:27;;;;;;;105.70;21.95;;;2.20;99.90;;;0.41;100.00;101396.19;4946217;28;21162;-79
2021/12/12 10:34:36;;;;;;;105.50;19.63;;;2.20;99.90;;;0.33;100.00;101390.97;4908719;28;20503;-79
2021/12/12 10:37:32;;;;;;;96.88;19.92;;;2.10;99.90;;;0.32;100.00;101381.47;4883227;28;20030;-78
2021/12/12 10:40:45;;;;;;;83.00;18.77;;;2.10;99.90;;;0.30;100.00;101383.22;4911158;28;20046;-79
2021/12/12 10:43:22;;;;;;;97.45;20.25;;;2.00;99.90;;;0.34;100.00;101379.75;4885576;28;21004;-78
2021/12/12 10:46:38;;;;;;;94.80;19.42;;;2.10;99.90;;;0.43;100.00;101383.25;4914685;28;20053;-78
2021/12/12 10:49:22;;;;;;;81.95;18.80;;;2.20;99.90;;;0.40;100.00;101369.44;4918231;28;20778;-78
2021/12/12 10:51:57;;;;;;;85.43;18.65;;;;;;;0.43;100.00;101365.13;4943084;28;20137;-78
2021/12/12 10:54:58;;;;;;;78.38;18.48;;;2.30;99.90;;;0.56;100.00;101374.69;4940360;28;20034;-78
2021/12/12 10:57:39;;;;;;;74.53;20.30;;;2.40;99.90;;;0.56;100.00;101370.41;4954014;28;20030;-79
2021/12/12 11:00:23;;;;;;;89.47;20.25;;;2.40;99.90;;;0.59;100.00;101377.31;4944696;28;20299;-78